createdAt,value
2017-06-10T00:00:21.477Z,4.20
2017-06-10T00:02:50.207Z,3.73
2017-06-10T00:05:16.716Z,3.80
2017-06-10T00:07:44.087Z,2.83
2017-06-10T00:10:10.335Z,2.67
2017-06-10T00:12:37.312Z,4.67
2017-06-10T00:15:03.600Z,3.10
2017-06-10T00:17:29.948Z,3.37
2017-06-10T00:19:56.880Z,2.30
2017-06-10T00:22:23.095Z,2.73
2017-06-10T00:24:49.264Z,2.83
2017-06-10T00:27:15.450Z,2.50
2017-06-10T00:29:41.609Z,2.30
2017-06-10T00:32:08.591Z,2.80
2017-06-10T00:34:34.855Z,2.70
2017-06-10T00:37:01.044Z,2.30
2017-06-10T00:39:27.285Z,1.90
2017-06-10T00:41:53.457Z,2.87
2017-06-10T00:44:20.223Z,3.03
2017-06-10T00:46:47.176Z,3.00
2017-06-10T00:49:13.336Z,3.20
2017-06-10T00:51:39.575Z,3.27
2017-06-10T00:54:05.777Z,2.70
2017-06-10T00:56:31.946Z,3.40
2017-06-10T00:58:58.177Z,2.90
2017-06-10T01:01:24.332Z,2.67
2017-06-10T01:03:51.251Z,2.73
2017-06-10T01:06:17.505Z,3.00
2017-06-10T01:08:43.651Z,2.50
2017-06-10T01:11:09.855Z,2.93
2017-06-10T01:13:36.815Z,2.80
2017-06-10T01:16:03.776Z,2.47
2017-06-10T01:18:30.014Z,2.90
2017-06-10T01:20:56.187Z,2.70
2017-06-10T01:23:22.411Z,2.70
2017-06-10T01:25:48.631Z,2.43
2017-06-10T01:28:14.880Z,1.90
2017-06-10T01:30:41.134Z,2.13
2017-06-10T01:33:07.335Z,2.83
2017-06-10T01:35:33.589Z,2.77
2017-06-10T01:38:00.535Z,2.57
2017-06-10T01:40:27.448Z,2.80
2017-06-10T01:42:53.706Z,2.30
2017-06-10T01:45:20.694Z,2.87
2017-06-10T01:47:46.910Z,2.57
2017-06-10T01:50:13.118Z,2.67
2017-06-10T01:52:39.664Z,2.70
2017-06-10T01:55:05.891Z,2.67
2017-06-10T01:57:32.099Z,3.30
2017-06-10T01:59:59.029Z,2.60
2017-06-10T02:02:25.246Z,2.97
2017-06-10T02:04:51.452Z,2.20
2017-06-10T02:07:17.604Z,2.40
2017-06-10T02:09:43.822Z,2.80
2017-06-10T02:12:10.124Z,2.50
2017-06-10T02:14:36.694Z,2.60
2017-06-10T02:17:02.849Z,2.50
2017-06-10T02:19:29.773Z,2.70
2017-06-10T02:21:55.987Z,2.50
2017-06-10T02:24:22.228Z,2.80
2017-06-10T02:26:48.400Z,1.93
2017-06-10T02:29:14.615Z,2.43
2017-06-10T02:31:41.527Z,3.13
2017-06-10T02:34:07.695Z,2.53
2017-06-10T02:36:34.645Z,3.10
2017-06-10T02:39:01.567Z,3.00
2017-06-10T02:41:28.124Z,2.90
2017-06-10T02:43:55.065Z,3.90
2017-06-10T02:46:22.001Z,2.90
2017-06-10T02:48:48.182Z,3.63
2017-06-10T02:51:14.323Z,3.37
2017-06-10T02:53:40.514Z,3.20
2017-06-10T02:56:06.687Z,3.40
2017-06-10T02:58:32.899Z,3.47
2017-06-10T03:00:59.100Z,3.23
2017-06-10T03:03:25.287Z,3.90
2017-06-10T03:05:51.435Z,3.90
2017-06-10T03:08:18.430Z,4.80
2017-06-10T03:10:44.646Z,4.30
2017-06-10T03:13:11.194Z,6.20
2017-06-10T03:15:37.382Z,5.43
2017-06-10T03:18:03.555Z,4.50
2017-06-10T03:20:29.779Z,5.10
2017-06-10T03:22:55.983Z,4.17
2017-06-10T03:25:22.178Z,4.23
2017-06-10T03:27:49.093Z,5.07
2017-06-10T03:30:15.301Z,5.07
2017-06-10T03:32:41.466Z,4.80
2017-06-10T03:35:07.656Z,3.90
2017-06-10T03:37:33.829Z,3.23
2017-06-10T03:39:59.994Z,4.37
2017-06-10T03:42:26.170Z,5.50
2017-06-10T03:44:52.360Z,4.20
2017-06-10T03:47:18.560Z,3.57
2017-06-10T03:49:46.225Z,3.87
2017-06-10T03:52:13.127Z,4.20
2017-06-10T03:54:39.300Z,3.63
2017-06-10T03:57:06.204Z,3.80
2017-06-10T03:59:32.644Z,2.70
2017-06-10T04:01:58.930Z,2.63
2017-06-10T04:04:25.127Z,3.50
2017-06-10T04:06:52.080Z,2.37
2017-06-10T04:09:19.019Z,2.23
2017-06-10T04:12:00.139Z,2.33
2017-06-10T04:14:26.454Z,3.30
2017-06-10T04:16:52.598Z,2.20
2017-06-10T04:19:18.784Z,2.57
2017-06-10T04:21:45.719Z,2.40
2017-06-10T04:24:11.906Z,2.87
2017-06-10T04:26:38.087Z,2.80
2017-06-10T04:29:05.026Z,2.40
2017-06-10T04:31:31.963Z,2.60
2017-06-10T04:33:58.210Z,2.60
2017-06-10T04:36:25.094Z,2.60
2017-06-10T04:38:51.295Z,2.43
2017-06-10T04:41:17.512Z,3.40
2017-06-10T04:43:44.443Z,3.63
2017-06-10T04:46:10.623Z,2.90
2017-06-10T04:48:36.791Z,3.03
2017-06-10T04:51:02.959Z,2.80
2017-06-10T04:53:29.155Z,3.30
2017-06-10T04:55:56.058Z,3.20
2017-06-10T04:58:22.265Z,3.27
2017-06-10T05:00:48.421Z,2.83
2017-06-10T05:03:14.633Z,2.83
2017-06-10T05:05:40.814Z,2.80
2017-06-10T05:08:07.736Z,2.30
2017-06-10T05:10:33.914Z,2.90
2017-06-10T05:13:00.118Z,3.00
2017-06-10T05:15:26.653Z,2.43
2017-06-10T05:17:53.611Z,2.60
2017-06-10T05:20:20.509Z,2.57
2017-06-10T05:22:46.688Z,2.30
2017-06-10T05:25:13.612Z,3.00
2017-06-10T05:27:39.785Z,2.73
2017-06-10T05:30:05.989Z,2.70
2017-06-10T05:32:32.151Z,2.57
2017-06-10T05:34:58.342Z,2.30
2017-06-10T05:37:25.263Z,2.37
2017-06-10T05:39:51.468Z,2.27
2017-06-10T05:42:17.640Z,2.97
2017-06-10T05:44:44.603Z,2.50
2017-06-10T05:47:10.763Z,2.07
2017-06-10T05:49:37.186Z,2.23
2017-06-10T05:52:03.375Z,1.90
2017-06-10T05:54:30.337Z,2.17
2017-06-10T05:56:56.553Z,2.10
2017-06-10T05:59:23.485Z,1.93
2017-06-10T06:01:50.433Z,1.70
2017-06-10T06:04:16.615Z,1.77
2017-06-10T06:06:42.797Z,1.97
2017-06-10T06:09:09.023Z,2.20
2017-06-10T06:11:36.348Z,1.90
2017-06-10T06:14:02.899Z,2.50
2017-06-10T06:16:29.148Z,2.60
2017-06-10T06:18:56.075Z,3.10
2017-06-10T06:21:23.013Z,1.93
2017-06-10T06:23:49.200Z,2.00
2017-06-10T06:26:15.403Z,2.10
2017-06-10T06:28:42.373Z,2.27
2017-06-10T06:31:08.623Z,2.57
2017-06-10T06:33:34.927Z,1.97
2017-06-10T06:36:01.156Z,2.27
2017-06-10T06:38:27.362Z,2.90
2017-06-10T06:40:54.244Z,2.33
2017-06-10T06:43:20.455Z,2.53
2017-06-10T06:45:46.695Z,2.77
2017-06-10T06:48:12.853Z,2.57
2017-06-10T06:50:39.065Z,2.50
2017-06-10T06:53:05.273Z,1.80
2017-06-10T06:55:32.230Z,3.33
2017-06-10T06:57:58.370Z,3.00
2017-06-10T07:00:24.595Z,2.70
2017-06-10T07:02:50.792Z,2.10
2017-06-10T07:05:17.011Z,2.30
2017-06-10T07:07:43.963Z,2.93
2017-06-10T07:10:10.183Z,2.30
2017-06-10T07:12:37.083Z,2.00
2017-06-10T07:15:03.280Z,2.40
2017-06-10T07:17:29.473Z,2.53
2017-06-10T07:19:56.394Z,2.27
2017-06-10T07:22:22.622Z,2.80
2017-06-10T07:24:48.838Z,2.73
2017-06-10T07:27:15.014Z,2.50
2017-06-10T07:29:41.948Z,3.27
2017-06-10T07:32:08.916Z,2.60
2017-06-10T07:34:35.127Z,2.77
2017-06-10T07:37:02.083Z,2.50
2017-06-10T07:39:28.287Z,2.47
2017-06-10T07:41:54.461Z,2.33
2017-06-10T07:44:20.682Z,2.57
2017-06-10T07:46:46.906Z,1.90
2017-06-10T07:49:13.078Z,2.10
2017-06-10T07:51:39.263Z,1.87
2017-06-10T07:54:05.475Z,2.10
2017-06-10T07:56:31.658Z,2.20
2017-06-10T07:58:57.883Z,1.87
2017-06-10T08:01:24.045Z,1.80
2017-06-10T08:03:50.233Z,1.60
2017-06-10T08:06:16.430Z,1.87
2017-06-10T08:08:42.597Z,2.40
2017-06-10T08:11:08.767Z,2.77
2017-06-10T08:13:35.699Z,2.30
2017-06-10T08:16:01.893Z,2.30
2017-06-10T08:18:28.115Z,2.63
2017-06-10T08:20:54.307Z,2.20
2017-06-10T08:23:21.228Z,2.20
2017-06-10T08:25:47.374Z,2.50
2017-06-10T08:28:14.334Z,2.33
2017-06-10T08:30:40.551Z,2.47
2017-06-10T08:33:06.721Z,2.17
2017-06-10T08:35:33.004Z,2.20
2017-06-10T08:37:59.944Z,2.17
2017-06-10T08:40:26.853Z,2.17
2017-06-10T08:42:53.107Z,2.30
2017-06-10T08:45:19.297Z,1.73
2017-06-10T08:47:45.479Z,1.87
2017-06-10T08:50:12.664Z,1.90
2017-06-10T08:52:38.859Z,2.13
2017-06-10T08:55:05.838Z,2.43
2017-06-10T08:57:32.020Z,1.80
2017-06-10T08:59:58.194Z,1.80
2017-06-10T09:02:24.396Z,1.70
2017-06-10T09:04:51.341Z,2.40
2017-06-10T09:07:18.295Z,2.07
2017-06-10T09:09:44.463Z,2.67
2017-06-10T09:12:10.658Z,1.63
2017-06-10T09:14:36.895Z,2.83
2017-06-10T09:17:03.074Z,2.10
2017-06-10T09:19:29.273Z,2.43
2017-06-10T09:21:55.863Z,1.67
2017-06-10T09:24:24.597Z,1.80
2017-06-10T09:26:50.783Z,2.00
2017-06-10T09:29:17.755Z,1.97
2017-06-10T09:31:43.936Z,2.10
2017-06-10T09:34:10.145Z,1.87
2017-06-10T09:36:36.364Z,1.90
2017-06-10T09:39:03.378Z,1.47
2017-06-10T09:41:29.625Z,2.40
2017-06-10T09:43:55.812Z,1.70
2017-06-10T09:46:22.756Z,1.97
2017-06-10T09:48:48.956Z,2.13
2017-06-10T09:51:15.165Z,1.70
2017-06-10T09:53:41.395Z,2.30
2017-06-10T09:56:07.574Z,1.63
2017-06-10T09:58:33.944Z,1.93
2017-06-10T10:01:00.142Z,1.43
2017-06-10T10:03:26.381Z,2.23
2017-06-10T10:05:52.600Z,1.50
2017-06-10T10:08:18.805Z,2.50
2017-06-10T10:10:45.399Z,1.40
2017-06-10T10:13:11.583Z,1.83
2017-06-10T10:15:38.501Z,1.77
2017-06-10T10:18:04.725Z,1.67
2017-06-10T10:20:30.915Z,1.37
2017-06-10T10:22:57.174Z,1.37
2017-06-10T10:25:23.412Z,1.37
2017-06-10T10:27:49.604Z,1.40
2017-06-10T10:30:15.862Z,2.20
2017-06-10T10:32:42.066Z,1.50
2017-06-10T10:35:08.270Z,1.47
2017-06-10T10:37:35.232Z,2.00
2017-06-10T10:40:01.765Z,2.60
2017-06-10T10:42:27.976Z,2.50
2017-06-10T10:44:55.567Z,1.77
2017-06-10T10:47:21.884Z,2.00
2017-06-10T10:49:48.109Z,1.83
2017-06-10T10:52:14.307Z,1.20
2017-06-10T10:54:40.534Z,1.70
2017-06-10T10:57:06.746Z,1.63
2017-06-10T10:59:32.953Z,1.33
2017-06-10T11:01:59.187Z,1.63
2017-06-10T11:04:25.459Z,1.67
2017-06-10T11:06:51.610Z,1.63
2017-06-10T11:09:17.780Z,1.80
2017-06-10T11:11:43.973Z,1.40
2017-06-10T11:14:10.174Z,1.47
2017-06-10T11:16:36.345Z,0.90
2017-06-10T11:19:02.577Z,1.50
2017-06-10T11:21:28.732Z,1.57
2017-06-10T11:23:54.923Z,1.50
2017-06-10T11:26:21.148Z,1.50
2017-06-10T11:28:47.349Z,1.90
2017-06-10T11:31:14.286Z,1.40
2017-06-10T11:33:40.565Z,1.60
2017-06-10T11:36:06.759Z,1.23
2017-06-10T11:38:33.721Z,1.60
2017-06-10T11:40:59.935Z,1.80
2017-06-10T11:43:27.548Z,1.23
2017-06-10T11:45:53.751Z,1.37
2017-06-10T11:48:19.933Z,1.10
2017-06-10T11:50:46.856Z,1.67
2017-06-10T11:53:13.049Z,1.53
2017-06-10T11:55:39.277Z,1.40
2017-06-10T11:58:05.522Z,1.47
2017-06-10T12:00:31.713Z,1.67
2017-06-10T12:02:58.234Z,1.97
2017-06-10T12:05:25.311Z,1.50
2017-06-10T12:07:51.514Z,1.60
2017-06-10T12:10:18.474Z,1.33
2017-06-10T12:12:45.405Z,1.43
2017-06-10T12:15:12.373Z,1.60
2017-06-10T12:17:38.941Z,1.30
2017-06-10T12:20:05.138Z,1.10
2017-06-10T12:22:31.321Z,1.20
2017-06-10T12:24:57.554Z,1.67
2017-06-10T12:27:27.567Z,1.30
2017-06-10T12:29:53.866Z,1.53
2017-06-10T12:32:20.053Z,1.67
2017-06-10T12:34:46.989Z,1.73
2017-06-10T12:37:13.293Z,1.40
2017-06-10T12:39:39.506Z,1.17
2017-06-10T12:42:05.735Z,1.20
2017-06-10T12:44:32.035Z,1.40
2017-06-10T12:46:58.249Z,1.23
2017-06-10T12:49:25.210Z,1.70
2017-06-10T12:51:51.464Z,1.20
2017-06-10T12:54:17.660Z,1.57
2017-06-10T12:56:44.640Z,1.60
2017-06-10T12:59:10.799Z,1.13
2017-06-10T13:01:36.999Z,2.17
2017-06-10T13:04:03.224Z,1.67
2017-06-10T13:06:29.443Z,1.47
2017-06-10T13:08:55.618Z,1.37
2017-06-10T13:11:36.765Z,2.00
2017-06-10T13:14:02.953Z,1.40
2017-06-10T13:16:29.888Z,1.13
2017-06-10T13:18:56.087Z,1.23
2017-06-10T13:21:22.262Z,1.37
2017-06-10T13:23:49.198Z,1.50
2017-06-10T13:26:15.390Z,1.57
2017-06-10T13:28:41.597Z,2.33
2017-06-10T13:31:07.766Z,1.30
2017-06-10T13:33:33.984Z,1.63
2017-06-10T13:36:00.248Z,1.40
2017-06-10T13:38:26.420Z,1.03
2017-06-10T13:40:52.647Z,1.97
2017-06-10T13:43:18.791Z,1.80
2017-06-10T13:45:52.959Z,1.67
2017-06-10T13:48:19.161Z,1.83
2017-06-10T13:50:46.106Z,1.73
2017-06-10T13:53:13.060Z,1.93
2017-06-10T13:55:42.350Z,2.03
2017-06-10T13:58:08.544Z,1.27
2017-06-10T14:00:34.897Z,1.40
2017-06-10T14:03:01.116Z,1.77
2017-06-10T14:05:27.356Z,1.27
2017-06-10T14:07:53.532Z,1.43
2017-06-10T14:10:19.755Z,2.00
2017-06-10T14:12:45.968Z,1.70
2017-06-10T14:15:12.876Z,1.60
2017-06-10T14:17:39.066Z,2.03
2017-06-10T14:20:05.303Z,1.67
2017-06-10T14:22:31.456Z,1.50
2017-06-10T14:24:57.647Z,1.37
2017-06-10T14:27:23.849Z,2.87
2017-06-10T14:29:50.797Z,1.30
2017-06-10T14:32:17.002Z,1.30
2017-06-10T14:34:43.223Z,1.70
2017-06-10T14:37:09.399Z,2.30
2017-06-10T14:39:35.570Z,2.33
2017-06-10T14:42:01.810Z,1.40
2017-06-10T14:44:27.981Z,1.63
2017-06-10T14:46:54.142Z,1.20
2017-06-10T14:49:20.373Z,1.40
2017-06-10T14:51:46.567Z,1.63
2017-06-10T14:54:12.836Z,1.90
2017-06-10T14:56:39.007Z,1.33
2017-06-10T14:59:05.943Z,1.87
2017-06-10T15:01:32.139Z,1.63
2017-06-10T15:03:58.331Z,1.70
2017-06-10T15:06:24.535Z,1.40
2017-06-10T15:08:51.463Z,1.10
2017-06-10T15:11:17.674Z,1.83
2017-06-10T15:13:43.865Z,2.10
2017-06-10T15:16:10.411Z,1.93
2017-06-10T15:18:36.595Z,1.83
2017-06-10T15:21:02.891Z,1.53
2017-06-10T15:23:29.118Z,1.90
2017-06-10T15:25:56.043Z,1.57
2017-06-10T15:28:22.213Z,2.03
2017-06-10T15:30:48.428Z,1.60
2017-06-10T15:33:14.627Z,1.93
2017-06-10T15:35:40.848Z,2.60
2017-06-10T15:38:07.111Z,1.50
2017-06-10T15:40:33.278Z,1.80
2017-06-10T15:43:00.225Z,1.13
2017-06-10T15:45:27.151Z,1.70
2017-06-10T15:47:53.339Z,1.83
2017-06-10T15:50:19.563Z,1.50
2017-06-10T15:52:45.727Z,1.57
2017-06-10T15:55:12.143Z,1.37
2017-06-10T15:57:38.344Z,1.90
2017-06-10T16:00:04.587Z,1.77
2017-06-10T16:02:30.821Z,2.10
2017-06-10T16:04:57.122Z,1.50
2017-06-10T16:07:23.399Z,1.40
2017-06-10T16:09:49.582Z,1.83
2017-06-10T16:12:15.780Z,1.90
2017-06-10T16:14:42.344Z,1.57
2017-06-10T16:17:08.510Z,3.40
2017-06-10T16:19:34.706Z,2.33
2017-06-10T16:22:00.864Z,2.10
2017-06-10T16:24:27.068Z,2.00
2017-06-10T16:26:53.254Z,1.80
2017-06-10T16:29:19.426Z,1.60
2017-06-10T16:31:45.579Z,1.70
2017-06-10T16:34:11.818Z,1.70
2017-06-10T16:36:38.038Z,2.07
2017-06-10T16:39:04.271Z,2.07
2017-06-10T16:41:45.399Z,1.90
2017-06-10T16:44:12.362Z,1.60
2017-06-10T16:46:38.563Z,2.40
2017-06-10T16:49:05.451Z,1.57
2017-06-10T16:51:31.638Z,2.07
2017-06-10T16:53:58.703Z,1.93
2017-06-10T16:56:24.904Z,1.47
2017-06-10T16:58:51.194Z,1.87
2017-06-10T17:01:17.363Z,1.97
2017-06-10T17:03:43.556Z,1.90
2017-06-10T17:06:09.801Z,2.10
2017-06-10T17:08:36.039Z,1.67
2017-06-10T17:11:02.270Z,1.80
2017-06-10T17:13:28.455Z,2.00
2017-06-10T17:15:54.654Z,1.83
2017-06-10T17:18:21.620Z,2.17
2017-06-10T17:20:47.792Z,2.03
2017-06-10T17:23:14.039Z,2.40
2017-06-10T17:25:40.251Z,2.60
2017-06-10T17:28:06.449Z,2.63
2017-06-10T17:30:32.635Z,2.60
2017-06-10T17:32:59.623Z,2.57
2017-06-10T17:35:25.755Z,2.67
2017-06-10T17:37:51.930Z,3.50
2017-06-10T17:40:18.896Z,2.80
2017-06-10T17:42:45.163Z,2.53
2017-06-10T17:45:11.334Z,2.33
2017-06-10T17:47:37.582Z,3.00
2017-06-10T17:50:04.487Z,2.80
2017-06-10T17:52:30.763Z,2.93
2017-06-10T17:54:56.971Z,2.20
2017-06-10T17:57:38.815Z,1.83
2017-06-10T18:00:05.095Z,2.80
2017-06-10T18:02:33.063Z,2.20
2017-06-10T18:05:00.015Z,3.37
2017-06-10T18:07:26.239Z,4.40
2017-06-10T18:09:53.184Z,2.40
2017-06-10T18:12:20.206Z,3.20
2017-06-10T18:14:46.376Z,2.80
2017-06-10T18:17:13.315Z,3.00
2017-06-10T18:19:40.283Z,6.60
2017-06-10T18:22:06.512Z,3.60
2017-06-10T18:24:32.736Z,4.10
2017-06-10T18:27:05.067Z,3.13
2017-06-10T18:29:31.268Z,2.80
2017-06-10T18:32:03.505Z,3.83
2017-06-10T18:34:29.725Z,3.27
2017-06-10T18:36:55.914Z,6.47
2017-06-10T18:39:22.131Z,4.30
2017-06-10T18:41:48.315Z,6.70
2017-06-10T18:44:14.484Z,4.90
2017-06-10T18:46:40.697Z,3.10
2017-06-10T18:49:06.902Z,3.27
2017-06-10T18:51:33.155Z,3.47
2017-06-10T18:53:59.349Z,4.10
2017-06-10T18:56:26.310Z,2.30
2017-06-10T18:58:52.507Z,2.80
2017-06-10T19:01:18.684Z,2.60
2017-06-10T19:03:44.900Z,2.93
2017-06-10T19:06:11.092Z,2.73
2017-06-10T19:08:38.032Z,2.97
2017-06-10T19:11:04.247Z,3.10
2017-06-10T19:13:31.214Z,2.83
2017-06-10T19:15:58.947Z,2.80
2017-06-10T19:18:25.203Z,2.80
2017-06-10T19:20:52.268Z,2.93
2017-06-10T19:23:19.236Z,3.00
2017-06-10T19:25:45.399Z,3.23
2017-06-10T19:28:11.576Z,2.87
2017-06-10T19:30:39.215Z,2.90
2017-06-10T19:33:05.365Z,2.93
2017-06-10T19:35:32.299Z,2.70
2017-06-10T19:37:59.259Z,3.13
2017-06-10T19:40:26.181Z,2.70
2017-06-10T19:42:52.381Z,3.23
2017-06-10T19:45:18.562Z,3.10
2017-06-10T19:47:44.740Z,2.80
2017-06-10T19:50:11.581Z,2.63
2017-06-10T19:52:37.775Z,3.00
2017-06-10T19:55:04.014Z,2.70
2017-06-10T19:57:30.169Z,2.77
2017-06-10T19:59:56.340Z,2.93
2017-06-10T20:02:23.363Z,2.73
2017-06-10T20:04:49.535Z,3.20
2017-06-10T20:07:15.742Z,2.93
2017-06-10T20:09:42.746Z,3.50
2017-06-10T20:12:08.986Z,3.60
2017-06-10T20:14:35.260Z,2.97
2017-06-10T20:17:01.478Z,3.03
2017-06-10T20:19:28.412Z,4.20
2017-06-10T20:21:56.626Z,3.90
2017-06-10T20:24:22.855Z,2.93
2017-06-10T20:26:49.051Z,2.80
2017-06-10T20:29:15.320Z,4.00
2017-06-10T20:31:41.579Z,3.17
2017-06-10T20:34:07.799Z,2.73
2017-06-10T20:36:33.975Z,3.43
2017-06-10T20:39:00.962Z,2.93
2017-06-10T20:41:27.202Z,3.10
2017-06-10T20:43:54.586Z,3.23
2017-06-10T20:46:21.642Z,3.10
2017-06-10T20:48:48.592Z,3.97
2017-06-10T20:51:15.617Z,3.80
2017-06-10T20:53:41.973Z,2.90
2017-06-10T20:56:23.547Z,2.60
2017-06-10T20:58:49.731Z,3.50
2017-06-10T21:01:16.145Z,3.13
2017-06-10T21:03:42.496Z,4.23
2017-06-10T21:06:08.849Z,4.50
2017-06-10T21:08:35.289Z,3.93
2017-06-10T21:11:02.125Z,3.67
2017-06-10T21:13:28.322Z,3.53
2017-06-10T21:15:54.579Z,3.33
2017-06-10T21:18:20.750Z,2.50
2017-06-10T21:20:48.573Z,3.00
2017-06-10T21:23:14.784Z,2.70
2017-06-10T21:25:41.022Z,4.10
2017-06-10T21:28:07.191Z,3.30
2017-06-10T21:30:34.230Z,3.20
2017-06-10T21:33:00.464Z,2.53
2017-06-10T21:35:26.618Z,3.60
2017-06-10T21:37:52.873Z,3.03
2017-06-10T21:40:19.235Z,3.30
2017-06-10T21:42:45.416Z,3.10
2017-06-10T21:45:11.647Z,3.70
2017-06-10T21:47:37.817Z,2.93
2017-06-10T21:50:04.382Z,3.10
2017-06-10T21:52:30.631Z,3.13
2017-06-10T21:54:57.559Z,3.20
2017-06-10T21:57:23.728Z,2.93
2017-06-10T21:59:50.021Z,3.83
2017-06-10T22:02:16.980Z,3.20
2017-06-10T22:04:43.153Z,4.07
2017-06-10T22:07:09.375Z,3.30
2017-06-10T22:09:35.615Z,3.07
2017-06-10T22:12:01.814Z,4.00
2017-06-10T22:14:29.109Z,2.60
2017-06-10T22:16:55.288Z,3.47
2017-06-10T22:19:21.465Z,3.37
2017-06-10T22:21:48.087Z,2.73
2017-06-10T22:24:29.195Z,2.63
2017-06-10T22:26:55.659Z,3.10
2017-06-10T22:29:21.839Z,3.13
2017-06-10T22:31:48.248Z,3.07
2017-06-10T22:34:14.443Z,3.40
2017-06-10T22:36:41.818Z,3.10
2017-06-10T22:39:08.018Z,3.00
2017-06-10T22:41:35.008Z,3.17
2017-06-10T22:44:01.913Z,3.63
2017-06-10T22:46:28.921Z,3.67
2017-06-10T22:48:56.125Z,3.53
2017-06-10T22:51:22.297Z,2.40
2017-06-10T22:53:48.450Z,3.20
2017-06-10T22:56:14.662Z,3.17
2017-06-10T22:58:40.859Z,4.83
2017-06-10T23:01:07.081Z,4.00
2017-06-10T23:03:34.024Z,2.70
2017-06-10T23:06:00.310Z,3.47
2017-06-10T23:08:26.623Z,3.07
2017-06-10T23:10:53.922Z,3.80
2017-06-10T23:13:20.127Z,2.40
2017-06-10T23:15:47.255Z,2.63
2017-06-10T23:18:13.502Z,3.87
2017-06-10T23:20:40.712Z,4.20
2017-06-10T23:23:06.931Z,3.03
2017-06-10T23:25:33.108Z,3.43
2017-06-10T23:27:59.285Z,2.53
2017-06-10T23:30:25.495Z,3.27
2017-06-10T23:32:53.568Z,2.97
2017-06-10T23:35:20.500Z,3.37
2017-06-10T23:37:47.483Z,3.23
2017-06-10T23:40:13.663Z,2.87
2017-06-10T23:42:39.883Z,3.43
2017-06-10T23:45:06.071Z,2.67
2017-06-10T23:47:32.255Z,2.87
2017-06-10T23:49:59.246Z,3.17
2017-06-10T23:52:25.400Z,2.97
2017-06-10T23:54:51.550Z,3.50
2017-06-10T23:57:17.738Z,3.20
2017-06-10T23:59:43.948Z,2.97
